Time;durP1;ratioP1;P1;durP2;ratioP2;P2;SDS_P1;SDS_P2;PMS_P1;PMS_P2;Temp;Humidity;BMP_temperature;BMP_pressure;BME280_temperature;BME280_humidity;BME280_pressure;Samples;Min_cycle;Max_cycle;Signal;HPM_P1;HPM_P2
2024/01/24 00:01:35;;;;;;;0.50;0.50;;;14.20;72.50;;;;;;5094291;28;20471;-70
2024/01/24 00:04:00;;;;;;;3.45;1.25;;;14.20;72.60;;;;;;5094068;28;20044;-70
2024/01/24 00:06:26;;;;;;;0.50;0.50;;;14.30;72.60;;;;;;5094316;28;20091;-70
2024/01/24 00:08:52;;;;;;;0.60;0.60;;;14.30;72.60;;;;;;5093804;28;20028;-70
2024/01/24 00:11:18;;;;;;;0.50;0.50;;;14.30;72.70;;;;;;5092604;28;20048;-70
2024/01/24 00:13:44;;;;;;;1.42;1.33;;;14.30;72.80;;;;;;5092571;28;20059;-70
2024/01/24 00:16:09;;;;;;;0.50;0.50;;;14.40;72.70;;;;;;5092882;28;20431;-70
2024/01/24 00:18:35;;;;;;;0.50;0.50;;;14.40;72.70;;;;;;5093763;28;20475;-70
2024/01/24 00:21:01;;;;;;;0.50;0.50;;;14.40;72.60;;;;;;5092924;28;20024;-70
2024/01/24 00:23:27;;;;;;;0.45;0.45;;;14.40;72.70;;;;;;5093988;28;20057;-70
2024/01/24 00:25:52;;;;;;;0.50;0.50;;;14.50;72.70;;;;;;5093785;28;20028;-70
2024/01/24 00:28:21;;;;;;;0.40;0.40;;;14.50;72.80;;;;;;5093643;28;20411;-70
2024/01/24 00:30:46;;;;;;;0.60;0.60;;;14.50;72.80;;;;;;5093634;28;20056;-71
2024/01/24 00:33:12;;;;;;;0.50;0.50;;;14.60;72.80;;;;;;5093424;28;20113;-70
2024/01/24 00:35:38;;;;;;;0.40;0.40;;;14.60;72.80;;;;;;5093501;28;20378;-70
2024/01/24 00:38:04;;;;;;;5.20;1.20;;;14.60;73.00;;;;;;5093363;28;20028;-70
2024/01/24 00:40:29;;;;;;;0.50;0.50;;;14.60;73.00;;;;;;5093639;28;20036;-70
2024/01/24 00:42:55;;;;;;;0.55;0.55;;;14.70;73.00;;;;;;5093406;28;20154;-70
2024/01/24 00:45:20;;;;;;;0.70;0.70;;;14.70;73.10;;;;;;5093579;28;20483;-70
2024/01/24 00:47:46;;;;;;;0.40;0.40;;;14.80;73.10;;;;;;5093095;28;20043;-69
2024/01/24 00:50:12;;;;;;;0.50;0.50;;;14.80;73.00;;;;;;5093260;28;20468;-72
2024/01/24 00:52:37;;;;;;;0.50;0.50;;;14.80;73.00;;;;;;5093176;28;20024;-72
2024/01/24 00:55:04;;;;;;;0.50;0.50;;;14.90;73.00;;;;;;5093177;28;20020;-72
2024/01/24 00:57:29;;;;;;;0.60;0.60;;;14.90;73.00;;;;;;5093357;28;20028;-70
2024/01/24 00:59:55;;;;;;;0.60;0.60;;;15.00;73.00;;;;;;5093125;28;20035;-70
2024/01/24 01:02:20;;;;;;;0.70;0.70;;;15.00;73.00;;;;;;5093456;28;20032;-70
2024/01/24 01:04:46;;;;;;;1.25;1.15;;;15.00;73.00;;;;;;5092770;28;20411;-71
2024/01/24 01:07:11;;;;;;;0.50;0.50;;;15.10;73.00;;;;;;5093190;28;20036;-71
2024/01/24 01:09:37;;;;;;;0.50;0.50;;;15.10;73.10;;;;;;5092834;28;20020;-73
2024/01/24 01:12:03;;;;;;;0.50;0.50;;;15.20;73.00;;;;;;5093432;28;20065;-73
2024/01/24 01:14:28;;;;;;;0.68;0.68;;;15.20;73.10;;;;;;5092857;28;20024;-72
2024/01/24 01:16:54;;;;;;;0.60;0.60;;;15.20;73.20;;;;;;5093123;28;20040;-72
2024/01/24 01:19:19;;;;;;;4.25;1.35;;;15.30;73.10;;;;;;5092727;28;20039;-73
2024/01/24 01:21:45;;;;;;;0.95;0.95;;;15.30;73.20;;;;;;5093067;28;20595;-73
2024/01/24 01:24:11;;;;;;;0.50;0.50;;;15.30;73.20;;;;;;5092554;28;20028;-73
2024/01/24 01:26:37;;;;;;;0.93;0.93;;;15.30;73.20;;;;;;5092349;28;20028;-73
2024/01/24 01:29:02;;;;;;;0.50;0.50;;;15.40;73.20;;;;;;5092770;28;20428;-73
2024/01/24 01:31:28;;;;;;;0.50;0.50;;;15.40;73.20;;;;;;5092919;28;20467;-73
2024/01/24 01:33:54;;;;;;;0.47;0.47;;;15.40;73.10;;;;;;5092874;28;20062;-73
2024/01/24 01:36:19;;;;;;;0.60;0.60;;;15.50;73.10;;;;;;5092790;28;20033;-73
2024/01/24 01:38:45;;;;;;;0.50;0.50;;;15.50;73.10;;;;;;5092404;28;20038;-73
2024/01/24 01:41:11;;;;;;;0.50;0.50;;;15.50;73.10;;;;;;5092548;28;20063;-73
2024/01/24 01:43:36;;;;;;;0.50;0.50;;;15.50;73.10;;;;;;5092290;28;20055;-73
2024/01/24 01:46:16;;;;;;;0.75;0.75;;;15.50;73.10;;;;;;5092448;28;20137;-72
2024/01/24 01:48:42;;;;;;;0.90;0.90;;;15.60;73.10;;;;;;5092239;28;20491;-72
2024/01/24 01:51:07;;;;;;;1.50;1.38;;;15.60;73.10;;;;;;5092284;28;20031;-72
2024/01/24 01:53:38;;;;;;;0.40;0.40;;;15.70;73.10;;;;;;5092289;28;20032;-72
2024/01/24 01:56:07;;;;;;;0.50;0.50;;;15.70;73.10;;;;;;5092416;28;20032;-73
2024/01/24 01:58:33;;;;;;;0.65;0.65;;;15.70;73.10;;;;;;5092295;28;20251;-72
2024/01/24 02:00:59;;;;;;;0.52;0.52;;;15.70;73.20;;;;;;5092298;28;20056;-70
2024/01/24 02:03:25;;;;;;;0.50;0.50;;;15.80;73.10;;;;;;5091967;28;20077;-70
2024/01/24 02:05:51;;;;;;;0.60;0.60;;;15.80;73.20;;;;;;5091932;28;20163;-70
2024/01/24 02:08:17;;;;;;;0.50;0.50;;;15.80;73.10;;;;;;5091714;28;20116;-68
2024/01/24 02:10:43;;;;;;;0.50;0.50;;;15.80;73.10;;;;;;5091915;28;20474;-70
2024/01/24 02:13:09;;;;;;;0.95;0.95;;;15.80;73.20;;;;;;5091791;28;20031;-68
2024/01/24 02:15:34;;;;;;;0.90;0.90;;;15.90;73.20;;;;;;5091758;28;20403;-69
2024/01/24 02:18:00;;;;;;;0.60;0.60;;;15.90;73.10;;;;;;5091961;28;20415;-69
2024/01/24 02:20:28;;;;;;;0.50;0.50;;;16.00;73.10;;;;;;5090555;28;20034;-69
2024/01/24 02:22:54;;;;;;;0.50;0.50;;;16.00;73.10;;;;;;5092163;28;20459;-69
2024/01/24 02:25:19;;;;;;;0.60;0.60;;;16.00;73.10;;;;;;5091524;28;20108;-69
2024/01/24 02:27:45;;;;;;;0.50;0.50;;;16.00;73.10;;;;;;5091610;28;20024;-69
2024/01/24 02:30:11;;;;;;;0.50;0.50;;;16.00;73.00;;;;;;5091463;28;20077;-69
2024/01/24 02:32:38;;;;;;;0.57;0.57;;;16.00;73.10;;;;;;5091340;28;20028;-69
2024/01/24 02:35:04;;;;;;;0.60;0.60;;;16.00;73.10;;;;;;5091267;28;20051;-69
2024/01/24 02:37:30;;;;;;;0.77;0.77;;;16.00;73.10;;;;;;5091495;28;20535;-69
2024/01/24 02:39:55;;;;;;;0.70;0.70;;;16.00;73.10;;;;;;5094677;28;20365;-69
2024/01/24 02:42:21;;;;;;;0.50;0.50;;;16.00;73.00;;;;;;5096145;28;20042;-69
2024/01/24 02:44:46;;;;;;;0.80;0.80;;;16.00;73.10;;;;;;5095667;28;20126;-69
2024/01/24 02:47:12;;;;;;;0.50;0.50;;;16.00;73.00;;;;;;5095877;28;20040;-69
2024/01/24 02:49:39;;;;;;;0.50;0.50;;;16.10;73.00;;;;;;5095508;28;20059;-69
2024/01/24 02:52:04;;;;;;;0.55;0.55;;;16.10;73.00;;;;;;5095905;28;20035;-69
2024/01/24 02:54:30;;;;;;;1.13;1.02;;;16.10;73.10;;;;;;5095586;28;20028;-69
2024/01/24 02:56:55;;;;;;;0.40;0.40;;;16.10;73.10;;;;;;5095713;28;20048;-69
2024/01/24 02:59:21;;;;;;;0.50;0.50;;;16.10;73.20;;;;;;5095547;28;20044;-69
2024/01/24 03:01:46;;;;;;;0.60;0.60;;;16.10;73.10;;;;;;5095644;28;20109;-69
2024/01/24 03:04:12;;;;;;;0.50;0.50;;;16.10;73.10;;;;;;5095022;28;20484;-69
2024/01/24 03:06:40;;;;;;;0.40;0.40;;;16.10;73.10;;;;;;5095409;28;20463;-69
2024/01/24 03:09:05;;;;;;;0.60;0.60;;;16.20;73.00;;;;;;5095203;28;20575;-69
2024/01/24 03:11:32;;;;;;;0.50;0.50;;;16.20;73.00;;;;;;5095444;28;20433;-69
2024/01/24 03:13:57;;;;;;;0.47;0.47;;;16.10;73.00;;;;;;5094879;28;20103;-69
2024/01/24 03:16:23;;;;;;;0.50;0.50;;;16.20;73.00;;;;;;5095637;28;20403;-68
2024/01/24 03:18:48;;;;;;;0.50;0.50;;;16.20;73.00;;;;;;5094956;28;20361;-69
2024/01/24 03:21:16;;;;;;;3.28;0.90;;;16.20;73.10;;;;;;5095225;28;20032;-68
2024/01/24 03:23:42;;;;;;;0.60;0.60;;;16.30;72.90;;;;;;5094871;28;20028;-69
2024/01/24 03:26:07;;;;;;;0.50;0.50;;;16.30;72.90;;;;;;5094843;28;20036;-69
2024/01/24 03:28:34;;;;;;;1.95;1.15;;;16.30;73.00;;;;;;5093502;28;20028;-68
2024/01/24 03:31:00;;;;;;;0.50;0.50;;;16.40;72.90;;;;;;5094759;28;20438;-69
2024/01/24 03:33:26;;;;;;;0.50;0.50;;;16.40;72.70;;;;;;5095225;28;20016;-69
2024/01/24 03:35:52;;;;;;;0.60;0.60;;;16.40;72.80;;;;;;5094662;28;20115;-70
2024/01/24 03:38:19;;;;;;;0.60;0.60;;;16.50;72.80;;;;;;5094562;28;20113;-69
2024/01/24 03:40:44;;;;;;;0.63;0.63;;;16.50;72.80;;;;;;5094561;28;20040;-69
2024/01/24 03:43:10;;;;;;;0.57;0.57;;;16.50;72.80;;;;;;5094540;28;20463;-70
2024/01/24 03:45:37;;;;;;;0.50;0.50;;;16.50;72.70;;;;;;5094674;28;20391;-69
2024/01/24 03:48:04;;;;;;;0.70;0.70;;;16.60;72.60;;;;;;5094284;28;20073;-69
2024/01/24 03:50:29;;;;;;;0.60;0.60;;;16.60;72.60;;;;;;5094667;28;20375;-68
2024/01/24 03:52:55;;;;;;;0.60;0.60;;;16.50;72.60;;;;;;5094317;28;20099;-70
2024/01/24 03:55:20;;;;;;;1.05;0.93;;;16.50;72.50;;;;;;5092925;28;20081;-70
2024/01/24 03:57:46;;;;;;;0.55;0.55;;;16.40;72.50;;;;;;5094289;28;20028;-70
2024/01/24 04:00:12;;;;;;;0.50;0.50;;;16.40;72.70;;;;;;5094115;28;20099;-70
2024/01/24 04:02:37;;;;;;;0.57;0.57;;;16.40;72.70;;;;;;5094270;28;20458;-69
2024/01/24 04:05:04;;;;;;;0.50;0.50;;;16.40;72.70;;;;;;5094050;28;20071;-69
2024/01/24 04:07:29;;;;;;;0.50;0.50;;;16.40;72.80;;;;;;5093870;28;20059;-70
2024/01/24 04:09:55;;;;;;;0.80;0.80;;;16.30;72.80;;;;;;5093940;28;20075;-69
2024/01/24 04:12:20;;;;;;;0.85;0.85;;;16.30;72.90;;;;;;5094416;28;20471;-70
2024/01/24 04:14:46;;;;;;;0.60;0.60;;;16.40;72.80;;;;;;5093766;28;20024;-70
2024/01/24 04:17:11;;;;;;;0.70;0.70;;;16.30;72.90;;;;;;5094239;28;20028;-70
2024/01/24 04:19:38;;;;;;;0.50;0.50;;;16.30;72.90;;;;;;5094040;28;20067;-70
2024/01/24 04:22:03;;;;;;;0.45;0.45;;;16.30;72.90;;;;;;5094181;28;20155;-70
2024/01/24 04:24:29;;;;;;;0.47;0.47;;;16.30;73.00;;;;;;5093706;28;20115;-69
2024/01/24 04:26:54;;;;;;;0.50;0.50;;;16.30;72.90;;;;;;5093925;28;20057;-69
2024/01/24 04:29:20;;;;;;;0.55;0.55;;;16.30;73.00;;;;;;5093709;28;20445;-70
2024/01/24 04:31:45;;;;;;;0.60;0.60;;;16.30;72.90;;;;;;5093832;28;20114;-69
2024/01/24 04:34:11;;;;;;;0.50;0.50;;;16.30;72.90;;;;;;5093794;28;20024;-69
2024/01/24 04:36:36;;;;;;;0.60;0.60;;;16.30;72.90;;;;;;5093772;28;20037;-69
2024/01/24 04:39:02;;;;;;;0.40;0.40;;;16.30;72.90;;;;;;5093250;28;20040;-70
2024/01/24 04:41:27;;;;;;;0.50;0.50;;;16.30;72.90;;;;;;5093665;28;20029;-69
2024/01/24 04:43:53;;;;;;;0.60;0.60;;;16.30;72.90;;;;;;5093275;28;20040;-69
2024/01/24 04:46:19;;;;;;;0.55;0.55;;;16.30;72.80;;;;;;5093407;28;20032;-70
2024/01/24 04:48:45;;;;;;;0.52;0.52;;;16.30;72.70;;;;;;5093242;28;20449;-71
2024/01/24 04:51:13;;;;;;;0.40;0.40;;;16.20;72.70;;;;;;5093474;28;20025;-69
2024/01/24 04:53:39;;;;;;;0.50;0.50;;;16.20;72.50;;;;;;5091871;28;20493;-69
2024/01/24 04:56:05;;;;;;;0.50;0.50;;;16.20;72.60;;;;;;5093179;28;20052;-70
2024/01/24 04:58:31;;;;;;;0.40;0.40;;;16.10;72.40;;;;;;5092981;28;20059;-70
2024/01/24 05:00:56;;;;;;;0.50;0.50;;;16.00;72.40;;;;;;5092288;28;20471;-71
2024/01/24 05:03:23;;;;;;;0.50;0.50;;;16.00;72.40;;;;;;5092863;28;20040;-71
2024/01/24 05:05:48;;;;;;;0.60;0.60;;;16.00;72.50;;;;;;5092872;28;20034;-71
2024/01/24 05:08:14;;;;;;;0.50;0.50;;;15.90;72.60;;;;;;5091509;28;20459;-69
2024/01/24 05:10:39;;;;;;;0.50;0.50;;;15.90;72.50;;;;;;5093020;28;20032;-70
2024/01/24 05:13:04;;;;;;;0.47;0.47;;;15.90;72.30;;;;;;5092639;28;20024;-69
2024/01/24 05:15:30;;;;;;;0.50;0.50;;;15.80;72.30;;;;;;5092688;28;20040;-69
2024/01/24 05:17:55;;;;;;;0.50;0.50;;;15.80;72.30;;;;;;5092660;28;20035;-69
2024/01/24 05:20:21;;;;;;;1.15;1.05;;;15.70;72.20;;;;;;5092601;28;20068;-69
2024/01/24 05:22:47;;;;;;;0.80;0.80;;;15.70;72.10;;;;;;5092816;28;20027;-69
2024/01/24 05:25:12;;;;;;;0.50;0.50;;;15.60;72.10;;;;;;5092486;28;20526;-69
2024/01/24 05:27:38;;;;;;;0.70;0.70;;;15.60;72.00;;;;;;5092420;28;20055;-69
2024/01/24 05:30:04;;;;;;;0.40;0.40;;;15.50;71.80;;;;;;5092328;28;20161;-68
2024/01/24 05:32:29;;;;;;;0.50;0.50;;;15.50;71.80;;;;;;5092385;28;20514;-69
2024/01/24 05:34:55;;;;;;;0.55;0.55;;;15.40;71.90;;;;;;5092348;28;20135;-69
2024/01/24 05:37:21;;;;;;;0.60;0.60;;;15.40;72.10;;;;;;5092349;28;20036;-69
2024/01/24 05:39:47;;;;;;;0.80;0.80;;;15.40;72.50;;;;;;5092375;28;20111;-69
2024/01/24 05:42:12;;;;;;;0.40;0.40;;;15.50;72.40;;;;;;5092516;28;20111;-69
2024/01/24 05:44:38;;;;;;;0.80;0.80;;;15.50;72.30;;;;;;5091996;28;20451;-69
2024/01/24 05:47:04;;;;;;;0.80;0.80;;;15.40;72.30;;;;;;5092174;28;20036;-71
2024/01/24 05:49:29;;;;;;;0.50;0.50;;;15.40;72.20;;;;;;5091956;28;20027;-70
2024/01/24 05:51:55;;;;;;;0.50;0.50;;;15.30;72.00;;;;;;5092135;28;20072;-71
2024/01/24 05:54:21;;;;;;;1.65;1.02;;;15.20;72.00;;;;;;5091965;28;20042;-71
2024/01/24 05:56:46;;;;;;;0.50;0.50;;;15.20;71.80;;;;;;5092204;28;20046;-70
2024/01/24 05:59:12;;;;;;;0.50;0.50;;;15.10;71.70;;;;;;5091521;28;20027;-70
2024/01/24 06:01:37;;;;;;;0.50;0.50;;;15.00;71.60;;;;;;5092121;28;20032;-70
2024/01/24 06:04:03;;;;;;;0.50;0.50;;;14.90;71.60;;;;;;5091527;28;20032;-70
2024/01/24 06:06:29;;;;;;;0.50;0.50;;;14.80;71.60;;;;;;5091967;28;20375;-70
2024/01/24 06:08:54;;;;;;;0.60;0.60;;;14.70;71.90;;;;;;5091806;28;20157;-69
2024/01/24 06:11:20;;;;;;;0.50;0.50;;;14.70;72.20;;;;;;5091958;28;20059;-69
2024/01/24 06:13:45;;;;;;;0.50;0.50;;;14.70;72.30;;;;;;5090932;28;20024;-69
2024/01/24 06:16:11;;;;;;;0.50;0.50;;;14.70;72.30;;;;;;5091756;28;20089;-69
2024/01/24 06:18:36;;;;;;;1.00;1.00;;;14.70;72.30;;;;;;5091662;28;20029;-69
2024/01/24 06:21:02;;;;;;;0.50;0.50;;;14.70;72.10;;;;;;5091556;28;20025;-70
2024/01/24 06:23:28;;;;;;;0.50;0.50;;;14.70;72.20;;;;;;5091870;28;20039;-69
2024/01/24 06:25:53;;;;;;;0.70;0.70;;;14.60;72.10;;;;;;5091738;28;20031;-69
2024/01/24 06:28:19;;;;;;;0.45;0.45;;;14.60;72.10;;;;;;5091394;28;20090;-69
2024/01/24 06:30:44;;;;;;;0.50;0.50;;;14.50;72.20;;;;;;5091520;28;20036;-70
2024/01/24 06:33:10;;;;;;;0.50;0.50;;;14.50;72.20;;;;;;5091284;28;20109;-69
2024/01/24 06:35:36;;;;;;;0.60;0.60;;;14.50;72.10;;;;;;5091527;28;20107;-69
2024/01/24 06:38:01;;;;;;;0.50;0.50;;;14.50;71.90;;;;;;5091453;28;20054;-70
2024/01/24 06:40:27;;;;;;;0.43;0.43;;;14.40;71.80;;;;;;5091984;28;20062;-72
2024/01/24 06:42:52;;;;;;;0.50;0.50;;;14.30;71.60;;;;;;5091759;28;20028;-72
2024/01/24 06:45:18;;;;;;;0.80;0.80;;;14.30;71.60;;;;;;5091207;28;20032;-71
2024/01/24 06:47:44;;;;;;;0.55;0.55;;;14.30;71.60;;;;;;5091362;28;20544;-71
2024/01/24 06:50:13;;;;;;;0.80;0.80;;;14.20;71.70;;;;;;5091327;28;20103;-71
2024/01/24 06:52:39;;;;;;;0.50;0.50;;;14.20;71.70;;;;;;5091690;28;20039;-71
2024/01/24 06:55:05;;;;;;;1.15;1.02;;;14.20;71.80;;;;;;5091669;28;20024;-71
2024/01/24 06:57:30;;;;;;;0.52;0.52;;;14.20;72.00;;;;;;5091806;28;20036;-71
2024/01/24 06:59:56;;;;;;;0.68;0.68;;;14.20;72.10;;;;;;5091736;28;20483;-71
2024/01/24 07:02:22;;;;;;;0.60;0.60;;;14.30;72.20;;;;;;5091807;28;20047;-71
2024/01/24 07:04:47;;;;;;;1.73;1.42;;;14.30;72.20;;;;;;5091432;28;20032;-71
2024/01/24 07:07:14;;;;;;;1.50;1.40;;;14.30;71.90;;;;;;5091987;28;20051;-71
2024/01/24 07:09:40;;;;;;;0.50;0.50;;;14.40;71.80;;;;;;5091837;28;20020;-71
2024/01/24 07:12:05;;;;;;;0.52;0.52;;;14.40;71.50;;;;;;5091656;28;20498;-71
2024/01/24 07:14:31;;;;;;;0.60;0.60;;;14.40;71.50;;;;;;5091862;28;20016;-71
2024/01/24 07:16:57;;;;;;;0.68;0.68;;;14.40;71.60;;;;;;5091777;28;20035;-71
2024/01/24 07:19:22;;;;;;;1.15;1.05;;;14.40;71.40;;;;;;5091321;28;20024;-71
2024/01/24 07:21:48;;;;;;;0.60;0.60;;;14.40;71.40;;;;;;5091562;28;20081;-71
2024/01/24 07:24:13;;;;;;;1.17;0.88;;;14.40;71.20;;;;;;5092309;28;20418;-71
2024/01/24 07:26:39;;;;;;;0.70;0.70;;;14.40;70.90;;;;;;5095757;28;20036;-71
2024/01/24 07:29:04;;;;;;;0.60;0.60;;;14.40;70.70;;;;;;5095036;28;20031;-71
2024/01/24 07:31:30;;;;;;;0.60;0.60;;;14.30;70.50;;;;;;5095413;28;20375;-71
2024/01/24 07:33:55;;;;;;;1.10;1.02;;;14.30;70.50;;;;;;5095189;28;20031;-71
2024/01/24 07:36:22;;;;;;;0.70;0.70;;;14.20;70.50;;;;;;5095235;28;20032;-71
2024/01/24 07:38:47;;;;;;;1.65;0.98;;;14.20;70.70;;;;;;5094832;28;20430;-71
2024/01/24 07:41:13;;;;;;;0.60;0.60;;;14.10;71.00;;;;;;5094979;28;20036;-71
2024/01/24 07:43:40;;;;;;;1.40;1.30;;;14.20;71.10;;;;;;5094592;28;20061;-71
2024/01/24 07:46:06;;;;;;;0.60;0.60;;;14.20;71.20;;;;;;5092972;28;20368;-72
2024/01/24 07:48:31;;;;;;;1.30;1.17;;;14.30;71.30;;;;;;5094855;28;20024;-70
2024/01/24 07:50:57;;;;;;;13.13;1.73;;;14.30;71.30;;;;;;5094153;28;20154;-70
2024/01/24 07:53:23;;;;;;;0.63;0.63;;;14.30;71.20;;;;;;5094479;28;20023;-69
2024/01/24 07:55:49;;;;;;;0.82;0.68;;;14.40;71.30;;;;;;5094466;28;20016;-70
2024/01/24 07:58:14;;;;;;;0.65;0.65;;;14.50;71.20;;;;;;5094415;28;20360;-69
2024/01/24 08:00:40;;;;;;;0.70;0.70;;;14.50;71.20;;;;;;5094129;28;20032;-70
2024/01/24 08:03:07;;;;;;;1.20;1.10;;;14.50;71.10;;;;;;5094153;28;20035;-70
2024/01/24 08:05:33;;;;;;;0.50;0.50;;;14.60;71.00;;;;;;5094033;28;20024;-69
2024/01/24 08:07:59;;;;;;;1.35;1.25;;;14.60;70.70;;;;;;5093875;28;20047;-70
2024/01/24 08:10:24;;;;;;;0.68;0.68;;;14.60;70.80;;;;;;5094014;28;20024;-71
2024/01/24 08:12:50;;;;;;;0.50;0.50;;;14.60;70.60;;;;;;5094152;28;20028;-70
2024/01/24 08:15:16;;;;;;;0.50;0.50;;;14.60;70.50;;;;;;5093666;28;20429;-70
2024/01/24 08:17:42;;;;;;;0.40;0.40;;;14.70;70.60;;;;;;5093826;28;20032;-71
2024/01/24 08:20:08;;;;;;;0.68;0.68;;;14.70;70.60;;;;;;5093553;28;20479;-71
2024/01/24 08:22:35;;;;;;;0.55;0.55;;;14.70;70.50;;;;;;5093548;28;20044;-70
2024/01/24 08:25:01;;;;;;;0.50;0.50;;;14.70;70.50;;;;;;5093643;28;20142;-71
2024/01/24 08:27:30;;;;;;;0.47;0.47;;;14.70;70.40;;;;;;5093576;28;20363;-71
2024/01/24 08:29:57;;;;;;;0.52;0.52;;;14.70;70.50;;;;;;5092471;28;20070;-70
2024/01/24 08:32:22;;;;;;;0.95;0.95;;;14.70;70.50;;;;;;5093494;28;20433;-70
2024/01/24 08:34:48;;;;;;;0.50;0.50;;;14.70;70.70;;;;;;5093464;28;20036;-71
2024/01/24 08:37:13;;;;;;;0.50;0.50;;;14.70;70.60;;;;;;5092318;28;20105;-70
2024/01/24 08:39:40;;;;;;;4.57;2.05;;;14.70;70.40;;;;;;5093318;28;20032;-71
2024/01/24 08:42:06;;;;;;;0.77;0.77;;;14.70;70.40;;;;;;5093032;28;20032;-70
2024/01/24 08:44:31;;;;;;;1.77;1.65;;;14.70;70.30;;;;;;5093435;28;20028;-70
2024/01/24 08:46:57;;;;;;;0.70;0.70;;;14.70;70.10;;;;;;5093453;28;20459;-70
2024/01/24 08:49:22;;;;;;;1.02;1.02;;;14.70;70.20;;;;;;5093608;28;20365;-70
2024/01/24 08:51:48;;;;;;;0.52;0.52;;;14.70;70.20;;;;;;5093102;28;20475;-70
2024/01/24 08:54:13;;;;;;;1.05;1.05;;;14.70;70.30;;;;;;5093491;28;20032;-70
2024/01/24 08:56:39;;;;;;;3.05;1.45;;;14.70;70.40;;;;;;5093332;28;20039;-70
2024/01/24 08:59:04;;;;;;;0.77;0.77;;;14.70;70.30;;;;;;5092310;28;20399;-70
2024/01/24 09:01:30;;;;;;;1.25;1.08;;;14.80;70.30;;;;;;5092955;28;20387;-70
2024/01/24 09:03:56;;;;;;;5.35;1.88;;;14.80;70.40;;;;;;5093110;28;20055;-70
2024/01/24 09:06:21;;;;;;;1.38;1.13;;;14.80;70.00;;;;;;5092804;28;20282;-70
2024/01/24 09:08:53;;;;;;;0.50;0.50;;;14.80;69.80;;;;;;5093094;28;20035;-69
2024/01/24 09:11:19;;;;;;;0.90;0.90;;;14.80;69.70;;;;;;5092682;28;20055;-70
2024/01/24 09:13:48;;;;;;;0.85;0.85;;;14.80;69.80;;;;;;5092982;28;20028;-70
2024/01/24 09:16:15;;;;;;;1.00;1.00;;;14.80;69.80;;;;;;5091227;28;20069;-70
2024/01/24 09:18:42;;;;;;;0.50;0.50;;;14.90;69.70;;;;;;5092883;28;20031;-70
2024/01/24 09:21:07;;;;;;;0.60;0.60;;;14.80;69.80;;;;;;5092652;28;20104;-70
2024/01/24 09:23:33;;;;;;;9.00;2.28;;;14.90;69.80;;;;;;5092742;28;20111;-69
2024/01/24 09:25:58;;;;;;;0.60;0.60;;;15.00;69.60;;;;;;5092390;28;20383;-70
2024/01/24 09:28:24;;;;;;;0.60;0.60;;;15.00;69.70;;;;;;5092606;28;20105;-70
2024/01/24 09:30:49;;;;;;;3.63;1.95;;;15.00;69.70;;;;;;5092345;28;20433;-69
2024/01/24 09:33:18;;;;;;;0.50;0.50;;;15.10;69.40;;;;;;5091007;28;20024;-70
2024/01/24 09:35:46;;;;;;;2.15;1.38;;;15.10;69.00;;;;;;5090810;28;20032;-70
2024/01/24 09:38:13;;;;;;;2.95;2.45;;;15.00;69.20;;;;;;5092406;28;20475;-70
2024/01/24 09:40:38;;;;;;;0.88;0.88;;;15.10;69.40;;;;;;5092393;28;20107;-68
2024/01/24 09:43:07;;;;;;;11.25;1.70;;;15.10;69.10;;;;;;5092091;28;20559;-69
2024/01/24 09:45:38;;;;;;;0.50;0.50;;;15.10;69.20;;;;;;5092082;28;20032;-69
2024/01/24 09:48:06;;;;;;;0.60;0.60;;;15.10;69.30;;;;;;5091997;28;20042;-69
2024/01/24 09:50:31;;;;;;;0.70;0.70;;;15.10;69.00;;;;;;5092187;28;20480;-69
2024/01/24 09:52:58;;;;;;;1.10;1.00;;;15.10;68.90;;;;;;5092151;28;20042;-69
2024/01/24 09:55:24;;;;;;;1.00;1.00;;;15.10;68.80;;;;;;5091893;28;20479;-69
2024/01/24 09:57:49;;;;;;;5.07;1.92;;;15.10;68.70;;;;;;5091965;28;20161;-68
2024/01/24 10:00:15;;;;;;;0.80;0.80;;;15.10;68.80;;;;;;5091771;28;20364;-70
2024/01/24 10:02:45;;;;;;;0.60;0.60;;;15.10;68.50;;;;;;5092350;28;20476;-69
2024/01/24 10:05:15;;;;;;;0.98;0.98;;;15.10;68.80;;;;;;5091816;28;20518;-68
2024/01/24 10:07:41;;;;;;;0.60;0.60;;;15.10;68.90;;;;;;5091720;28;20396;-68
2024/01/24 10:10:09;;;;;;;1.65;1.48;;;15.10;68.70;;;;;;5091829;28;20028;-68
2024/01/24 10:12:35;;;;;;;1.63;1.52;;;15.20;68.60;;;;;;5091635;28;20107;-68
2024/01/24 10:15:01;;;;;;;1.45;1.35;;;15.10;68.60;;;;;;5091560;28;20082;-68
2024/01/24 10:17:27;;;;;;;0.60;0.60;;;15.20;68.40;;;;;;5091749;28;20464;-69
2024/01/24 10:19:53;;;;;;;1.02;1.00;;;15.20;68.70;;;;;;5091596;28;20024;-69
2024/01/24 10:22:19;;;;;;;0.60;0.60;;;15.30;68.20;;;;;;5091709;28;20432;-69
2024/01/24 10:24:47;;;;;;;0.50;0.50;;;15.30;67.90;;;;;;5091620;28;20028;-68
2024/01/24 10:27:13;;;;;;;0.93;0.90;;;15.30;68.10;;;;;;5091197;28;20021;-68
2024/01/24 10:29:39;;;;;;;6.32;0.95;;;15.30;68.50;;;;;;5091396;28;20036;-68
2024/01/24 10:32:09;;;;;;;3.10;1.45;;;15.30;68.30;;;;;;5091348;28;20043;-68
2024/01/24 10:34:35;;;;;;;3.55;2.53;;;15.30;68.90;;;;;;5091448;28;20028;-68
2024/01/24 10:37:04;;;;;;;0.65;0.65;;;15.30;68.00;;;;;;5091341;28;20055;-68
2024/01/24 10:39:33;;;;;;;2.75;2.00;;;15.30;68.00;;;;;;5091049;28;20391;-68
2024/01/24 10:42:06;;;;;;;3.42;1.38;;;15.30;67.20;;;;;;5091434;28;20073;-68
2024/01/24 10:44:34;;;;;;;0.60;0.60;;;15.30;67.30;;;;;;5091403;28;20041;-68
2024/01/24 10:47:04;;;;;;;0.60;0.60;;;15.30;67.90;;;;;;5091242;28;20066;-68
2024/01/24 10:49:31;;;;;;;1.48;1.35;;;15.20;67.80;;;;;;5090094;28;20040;-68
2024/01/24 10:51:57;;;;;;;1.67;1.58;;;15.30;67.70;;;;;;5091137;28;20024;-68
2024/01/24 10:54:23;;;;;;;1.10;1.10;;;15.20;67.30;;;;;;5091832;28;20024;-68
2024/01/24 10:56:50;;;;;;;0.40;0.40;;;15.30;68.20;;;;;;5091297;28;20038;-68
2024/01/24 10:59:20;;;;;;;0.68;0.68;;;15.30;67.90;;;;;;5091875;28;20471;-68
2024/01/24 11:01:47;;;;;;;0.40;0.40;;;15.30;67.30;;;;;;5095200;28;20028;-68
2024/01/24 11:04:19;;;;;;;12.40;1.25;;;15.30;67.30;;;;;;5095148;28;20437;-68
2024/01/24 11:06:51;;;;;;;1.52;1.42;;;15.30;67.20;;;;;;5094827;28;20028;-68
2024/01/24 11:09:26;;;;;;;1.52;1.42;;;15.30;67.30;;;;;;5095355;28;20024;-67
2024/01/24 11:11:56;;;;;;;1.17;1.08;;;15.30;66.80;;;;;;5095242;28;20501;-68
2024/01/24 11:14:29;;;;;;;1.35;1.17;;;15.30;66.10;;;;;;5095423;28;20085;-67
2024/01/24 11:16:55;;;;;;;0.65;0.65;;;15.30;67.30;;;;;;5093764;28;20034;-68
2024/01/24 11:19:24;;;;;;;0.73;0.73;;;15.40;67.30;;;;;;5095307;28;20040;-67
2024/01/24 11:21:50;;;;;;;0.57;0.57;;;15.40;67.40;;;;;;5094704;28;20032;-67
2024/01/24 11:24:46;;;;;;;3.22;2.22;;;15.40;66.90;;;;;;5094984;28;20028;-67
2024/01/24 11:27:35;;;;;;;0.60;0.60;;;15.50;66.80;;;;;;5093424;28;20043;-67
2024/01/24 11:30:06;;;;;;;0.60;0.60;;;15.40;67.10;;;;;;5094635;28;20494;-68
2024/01/24 11:32:44;;;;;;;0.50;0.50;;;15.40;67.40;;;;;;5093340;28;20050;-69
2024/01/24 11:35:31;;;;;;;22.48;1.42;;;15.40;68.00;;;;;;5094526;28;20016;-69
2024/01/24 11:38:06;;;;;;;1.40;1.30;;;15.50;67.10;;;;;;5093286;28;20062;-69
2024/01/24 11:40:40;;;;;;;1.52;1.02;;;15.50;67.30;;;;;;5092977;28;20024;-70
2024/01/24 11:43:06;;;;;;;0.60;0.60;;;15.60;67.10;;;;;;5094730;28;20428;-69
2024/01/24 11:45:34;;;;;;;1.00;1.00;;;15.70;67.10;;;;;;5094334;28;20024;-69
2024/01/24 11:47:59;;;;;;;0.60;0.60;;;15.70;66.10;;;;;;5094547;28;20043;-69
2024/01/24 11:50:25;;;;;;;1.30;1.20;;;15.80;66.80;;;;;;5094501;28;20028;-69
2024/01/24 11:52:58;;;;;;;1.65;1.45;;;15.80;66.60;;;;;;5094388;28;20384;-68
2024/01/24 11:55:24;;;;;;;1.25;1.17;;;15.80;66.30;;;;;;5094508;28;20107;-68
2024/01/24 11:57:49;;;;;;;0.73;0.73;;;15.80;66.50;;;;;;5094221;28;20550;-68
2024/01/24 12:00:15;;;;;;;1.38;1.25;;;15.80;65.80;;;;;;5094008;28;20337;-68
2024/01/24 12:02:41;;;;;;;4.68;1.05;;;15.80;65.60;;;;;;5093884;28;20472;-69
2024/01/24 12:05:07;;;;;;;2.08;1.30;;;15.80;66.20;;;;;;5093717;28;20081;-66
2024/01/24 12:07:32;;;;;;;0.80;0.80;;;15.80;66.50;;;;;;5093710;28;20036;-68
2024/01/24 12:09:58;;;;;;;1.67;1.15;;;15.90;66.20;;;;;;5094297;28;20031;-69
2024/01/24 12:12:24;;;;;;;1.15;1.13;;;15.90;65.20;;;;;;5092573;28;20040;-68
2024/01/24 12:14:50;;;;;;;1.45;1.35;;;15.90;64.60;;;;;;5093693;28;20468;-68
2024/01/24 12:17:16;;;;;;;1.00;0.98;;;15.80;63.90;;;;;;5093592;28;20039;-68
2024/01/24 12:19:45;;;;;;;2.85;2.05;;;15.80;65.10;;;;;;5093569;28;20036;-68
2024/01/24 12:22:12;;;;;;;1.40;1.02;;;15.80;64.70;;;;;;5093500;28;20491;-68
2024/01/24 12:24:39;;;;;;;0.60;0.60;;;15.80;65.00;;;;;;5093421;28;20045;-69
2024/01/24 12:27:07;;;;;;;1.25;1.15;;;15.90;65.40;;;;;;5093314;28;20027;-69
2024/01/24 12:29:33;;;;;;;2.50;2.03;;;15.80;64.40;;;;;;5093661;28;20024;-68
2024/01/24 12:32:03;;;;;;;1.23;1.15;;;15.80;64.30;;;;;;5093445;28;20020;-69
2024/01/24 12:34:29;;;;;;;0.90;0.90;;;15.80;62.90;;;;;;5093616;28;20529;-69
2024/01/24 12:36:57;;;;;;;4.43;1.40;;;15.80;62.70;;;;;;5093124;28;20028;-69
2024/01/24 12:39:32;;;;;;;0.65;0.65;;;15.70;62.80;;;;;;5093628;28;20046;-69
2024/01/24 12:41:59;;;;;;;0.77;0.75;;;15.70;63.20;;;;;;5093362;28;20024;-69